Senryumaru — JD2014 — position and weather

sailwx.info

Track history (hours):
 
Tides and Currents Weather Stations Pressure Air Temp Water Temp Dewpoint Dewpoint Depression Visibility Wind Speed Wind Dir Waves Ship Positions

Senryumaru

Last reported at 2018-Jan-23 11:29 UTC. Time now 2018-Jan-23 11:52 UTC.
Position N 34°59' E 136°44'.

Length 62 m; draft 14 m.

Type: Tanker. MMSI: 431401993.

Date/timePositionNaut miles runAvg speedWind from/ knotsBaromVisibWave heightAir tempDewpointWater temp
2018-Jan-23 11:29N 34°59' E 136°44'0 0.0
2018-Jan-23 10:59N 34°59' E 136°44'0 0.0
2018-Jan-23 10:29N 34°59' E 136°44'0 0.0
2018-Jan-23 09:59N 34°59' E 136°44'0 0.0
2018-Jan-23 09:29N 34°59' E 136°44'0 0.0
2018-Jan-23 08:59N 34°59' E 136°44'0 0.0
2018-Jan-23 08:29N 34°59' E 136°44'0 0.2
2018-Jan-23 08:00N 34°59' E 136°44'5 9.1
2018-Jan-23 07:30N 34°54' E 136°43'510.5
2018-Jan-23 07:00N 34°50' E 136°46'510.5
2018-Jan-23 06:30N 34°45' E 136°49'5 9.8
2018-Jan-23 06:00N 34°41' E 136°52'103 7.6
2018-Jan-22 16:20N 33°50' E 135°02'411.8
2018-Jan-22 16:00N 33°53' E 135°00'612.1
2018-Jan-22 15:31N 33°59' E 134°59'612.0
2018-Jan-22 15:00N 34°05' E 134°59'612.0
2018-Jan-22 14:31N 34°11' E 134°59'611.6
2018-Jan-22 14:00N 34°17' E 134°59'510.9
2018-Jan-22 13:31N 34°22' E 135°01'611.8
2018-Jan-22 13:01N 34°25' E 135°07'612.0
2018-Jan-22 12:30N 34°28' E 135°14'511.0
2018-Jan-22 12:00N 34°31' E 135°20'0 0.6
2018-Jan-22 11:28N 34°31' E 135°20'0 0.1
2018-Jan-22 10:55N 34°31' E 135°20'0 0.1
2018-Jan-22 10:28N 34°31' E 135°20'0 0.1
2018-Jan-22 09:58N 34°31' E 135°20'0 0.0
2018-Jan-22 09:28N 34°31' E 135°20'0 0.0
2018-Jan-22 08:58N 34°31' E 135°20'0 0.0
2018-Jan-22 08:28N 34°31' E 135°20'0 0.0
2018-Jan-22 07:55N 34°31' E 135°20'0 0.0
2018-Jan-22 07:28N 34°31' E 135°20'0 0.0
2018-Jan-22 06:58N 34°31' E 135°20'0 0.0
2018-Jan-22 06:28N 34°31' E 135°20'0 0.1
2018-Jan-22 05:55N 34°31' E 135°20'0 0.1
2018-Jan-22 05:28N 34°31' E 135°20'0 0.1
2018-Jan-22 04:58N 34°31' E 135°20'0 0.1
2018-Jan-22 04:31N 34°31' E 135°20'4 8.6
2018-Jan-22 04:00N 34°33' E 135°24'1 2.7
2018-Jan-22 03:30N 34°33' E 135°26'0 0.0
2018-Jan-22 03:00N 34°33' E 135°26'0 0.0
2018-Jan-22 02:30N 34°33' E 135°26'0 0.0
2018-Jan-22 02:00N 34°33' E 135°26'0 0.0
2018-Jan-22 01:30N 34°33' E 135°26'0 0.0
2018-Jan-22 01:00N 34°33' E 135°26'0 0.0
2018-Jan-22 00:30N 34°33' E 135°26'0 0.0
2018-Jan-22 00:01N 34°33' E 135°26'0 0.0
2018-Jan-21 23:30N 34°33' E 135°26'0 0.0
2018-Jan-21 23:01N 34°33' E 135°26'0 0.0
2018-Jan-21 22:30N 34°33' E 135°26'1 2.0
2018-Jan-21 22:01N 34°33' E 135°25'1 2.2
2018-Jan-21 21:29N 34°34' E 135°23'0 0.0
2018-Jan-21 20:56N 34°34' E 135°23'0 0.0
2018-Jan-21 20:29N 34°34' E 135°23'0 0.0
2018-Jan-21 19:59N 34°34' E 135°23'0 0.0
2018-Jan-21 19:29N 34°34' E 135°23'0 0.0
2018-Jan-21 18:59N 34°34' E 135°23'0 0.0
2018-Jan-21 18:29N 34°34' E 135°23'0 0.0
2018-Jan-21 17:59N 34°34' E 135°23'0 0.0
2018-Jan-21 17:29N 34°34' E 135°23'0 0.0
2018-Jan-21 16:59N 34°34' E 135°23'0 0.0
2018-Jan-21 16:29N 34°34' E 135°23'0 0.0
2018-Jan-21 15:59N 34°34' E 135°23'0 0.0
2018-Jan-21 15:29N 34°34' E 135°23'0 0.0
2018-Jan-21 14:59N 34°34' E 135°23'0 0.0
2018-Jan-21 14:29N 34°34' E 135°23'0 0.0
2018-Jan-21 13:59N 34°34' E 135°23'0 0.0
2018-Jan-21 13:29N 34°34' E 135°23'0 0.0
2018-Jan-21 12:59N 34°34' E 135°23'0 0.0
2018-Jan-21 12:29N 34°34' E 135°23'0 0.0
2018-Jan-21 11:59N 34°34' E 135°23'0 0.0
2018-Jan-21 11:29N 34°34' E 135°23'0 0.0
2018-Jan-21 10:59N 34°34' E 135°23'0 0.0
2018-Jan-21 10:29N 34°34' E 135°23'0 0.0
2018-Jan-21 09:53N 34°34' E 135°23'0 0.0
2018-Jan-21 09:29N 34°34' E 135°23'0 0.0
2018-Jan-21 08:59N 34°34' E 135°23'0 0.1
2018-Jan-21 08:29N 34°34' E 135°23'0 0.0
2018-Jan-21 07:59N 34°34' E 135°23'0 0.0
2018-Jan-21 07:26N 34°34' E 135°23'0 0.0
2018-Jan-21 06:58N 34°34' E 135°23'0 0.0
2018-Jan-21 06:23N 34°34' E 135°23'0 0.0
2018-Jan-21 05:58N 34°34' E 135°23'0 0.0
2018-Jan-21 05:28N 34°34' E 135°23'0 0.0
2018-Jan-21 04:58N 34°34' E 135°23'0 0.0
2018-Jan-21 04:28N 34°34' E 135°23'0 0.0
2018-Jan-21 03:58N 34°34' E 135°23'0 0.0
2018-Jan-21 03:28N 34°34' E 135°23'0 0.0
2018-Jan-21 02:58N 34°34' E 135°23'0 0.0
2018-Jan-21 02:28N 34°34' E 135°23'0 0.0
2018-Jan-21 01:55N 34°34' E 135°23'0 0.0
2018-Jan-21 01:28N 34°34' E 135°23'0 0.0
2018-Jan-21 00:58N 34°34' E 135°23'0 0.0
2018-Jan-21 00:25N 34°34' E 135°23'0 0.0
2018-Jan-20 23:58N 34°34' E 135°23'0 0.0
2018-Jan-20 23:28N 34°34' E 135°23'0 0.0
2018-Jan-20 22:58N 34°34' E 135°23'0 0.0
2018-Jan-20 22:28N 34°34' E 135°23'1 2.7
2018-Jan-20 22:01N 34°34' E 135°22'611.7
2018-Jan-20 21:30N 34°31' E 135°16'611.9
2018-Jan-20 21:00N 34°26' E 135°10'611.5
2018-Jan-20 20:31N 34°22' E 135°06'611.4
2018-Jan-20 20:00N 34°18' E 135°01'5 9.5
2018-Jan-20 19:31N 34°14' E 134°59'510.7
2018-Jan-20 19:00N 34°09' E 134°57'611.4
2018-Jan-20 18:30N 34°03' E 134°55'611.6
2018-Jan-20 17:59N 33°57' E 134°54'711.3
2018-Jan-20 17:23N 33°51' E 134°52'1111.0
2018-Jan-20 16:22N 33°41' E 134°44'4 0.1
2018-Jan-18 13:32N 33°45' E 134°44'112.2
2018-Jan-18 13:29N 33°46' E 134°45'911.7
2018-Jan-18 12:44N 33°53' E 134°51'311.9
2018-Jan-18 12:30N 33°55' E 134°52'611.7
2018-Jan-18 12:00N 34°01' E 134°54'611.7
2018-Jan-18 11:30N 34°06' E 134°56'611.6
2018-Jan-18 11:01N 34°12' E 134°58'611.5
2018-Jan-18 10:30N 34°18' E 134°59'511.0
2018-Jan-18 10:01N 34°23' E 135°02'611.9
2018-Jan-18 09:30N 34°26' E 135°08'612.1
2018-Jan-18 09:01N 34°29' E 135°14'611.3
2018-Jan-18 08:30N 34°32' E 135°20'5 9.5
2018-Jan-18 08:01N 34°33' E 135°25'0 0.8
2018-Jan-18 07:30N 34°33' E 135°26'0 0.0
2018-Jan-18 07:00N 34°33' E 135°26'0 0.0
2018-Jan-18 06:30N 34°33' E 135°26'0 0.0
2018-Jan-18 06:00N 34°33' E 135°26'0 0.0
2018-Jan-18 05:30N 34°33' E 135°26'0 0.0
2018-Jan-18 05:01N 34°33' E 135°26'0 0.0
2018-Jan-18 04:29N 34°33' E 135°26'0 0.0
2018-Jan-18 04:01N 34°33' E 135°26'0 0.0
2018-Jan-18 03:30N 34°33' E 135°26'0 0.0
2018-Jan-18 03:01N 34°33' E 135°26'0 0.0
2018-Jan-18 02:30N 34°33' E 135°26'0 0.0
2018-Jan-18 02:00N 34°33' E 135°26'0 0.0
2018-Jan-18 01:30N 34°33' E 135°26'0 0.0
2018-Jan-18 01:00N 34°33' E 135°26'1 0.6
2018-Jan-18 00:01N 34°33' E 135°25'0 5.9
2018-Jan-17 23:57N 34°33' E 135°25'  
Track history (hours):
 
Tides and Currents Weather Stations Pressure Air Temp Water Temp Dewpoint Dewpoint Depression Visibility Wind Speed Wind Dir Waves Ship Positions

Senryumaru

Last reported at 2018-Jan-23 11:29 UTC. Time now 2018-Jan-23 11:52 UTC.
Position N 34°59' E 136°44'.

Length 62 m; draft 14 m.

Type: Tanker. MMSI: 431401993.

Date/timePositionNaut miles runAvg speedWind from/ knotsBaromVisibWave heightAir tempDewpointWater temp
2018-Jan-23 11:29N 34°59' E 136°44'0 0.0
2018-Jan-23 10:59N 34°59' E 136°44'0 0.0
2018-Jan-23 10:29N 34°59' E 136°44'0 0.0
2018-Jan-23 09:59N 34°59' E 136°44'0 0.0
2018-Jan-23 09:29N 34°59' E 136°44'0 0.0
2018-Jan-23 08:59N 34°59' E 136°44'0 0.0
2018-Jan-23 08:29N 34°59' E 136°44'0 0.2
2018-Jan-23 08:00N 34°59' E 136°44'5 9.1
2018-Jan-23 07:30N 34°54' E 136°43'510.5
2018-Jan-23 07:00N 34°50' E 136°46'510.5
2018-Jan-23 06:30N 34°45' E 136°49'5 9.8
2018-Jan-23 06:00N 34°41' E 136°52'103 7.6
2018-Jan-22 16:20N 33°50' E 135°02'411.8
2018-Jan-22 16:00N 33°53' E 135°00'612.1
2018-Jan-22 15:31N 33°59' E 134°59'612.0
2018-Jan-22 15:00N 34°05' E 134°59'612.0
2018-Jan-22 14:31N 34°11' E 134°59'611.6
2018-Jan-22 14:00N 34°17' E 134°59'510.9
2018-Jan-22 13:31N 34°22' E 135°01'611.8
2018-Jan-22 13:01N 34°25' E 135°07'612.0
2018-Jan-22 12:30N 34°28' E 135°14'511.0
2018-Jan-22 12:00N 34°31' E 135°20'0 0.6
2018-Jan-22 11:28N 34°31' E 135°20'0 0.1
2018-Jan-22 10:55N 34°31' E 135°20'0 0.1
2018-Jan-22 10:28N 34°31' E 135°20'0 0.1
2018-Jan-22 09:58N 34°31' E 135°20'0 0.0
2018-Jan-22 09:28N 34°31' E 135°20'0 0.0
2018-Jan-22 08:58N 34°31' E 135°20'0 0.0
2018-Jan-22 08:28N 34°31' E 135°20'0 0.0
2018-Jan-22 07:55N 34°31' E 135°20'0 0.0
2018-Jan-22 07:28N 34°31' E 135°20'0 0.0
2018-Jan-22 06:58N 34°31' E 135°20'0 0.0
2018-Jan-22 06:28N 34°31' E 135°20'0 0.1
2018-Jan-22 05:55N 34°31' E 135°20'0 0.1
2018-Jan-22 05:28N 34°31' E 135°20'0 0.1
2018-Jan-22 04:58N 34°31' E 135°20'0 0.1
2018-Jan-22 04:31N 34°31' E 135°20'4 8.6
2018-Jan-22 04:00N 34°33' E 135°24'1 2.7
2018-Jan-22 03:30N 34°33' E 135°26'0 0.0
2018-Jan-22 03:00N 34°33' E 135°26'0 0.0
2018-Jan-22 02:30N 34°33' E 135°26'0 0.0
2018-Jan-22 02:00N 34°33' E 135°26'0 0.0
2018-Jan-22 01:30N 34°33' E 135°26'0 0.0
2018-Jan-22 01:00N 34°33' E 135°26'0 0.0
2018-Jan-22 00:30N 34°33' E 135°26'0 0.0
2018-Jan-22 00:01N 34°33' E 135°26'0 0.0
2018-Jan-21 23:30N 34°33' E 135°26'0 0.0
2018-Jan-21 23:01N 34°33' E 135°26'0 0.0
2018-Jan-21 22:30N 34°33' E 135°26'1 2.0
2018-Jan-21 22:01N 34°33' E 135°25'1 2.2
2018-Jan-21 21:29N 34°34' E 135°23'0 0.0
2018-Jan-21 20:56N 34°34' E 135°23'0 0.0
2018-Jan-21 20:29N 34°34' E 135°23'0 0.0
2018-Jan-21 19:59N 34°34' E 135°23'0 0.0
2018-Jan-21 19:29N 34°34' E 135°23'0 0.0
2018-Jan-21 18:59N 34°34' E 135°23'0 0.0
2018-Jan-21 18:29N 34°34' E 135°23'0 0.0
2018-Jan-21 17:59N 34°34' E 135°23'0 0.0
2018-Jan-21 17:29N 34°34' E 135°23'0 0.0
2018-Jan-21 16:59N 34°34' E 135°23'0 0.0
2018-Jan-21 16:29N 34°34' E 135°23'0 0.0
2018-Jan-21 15:59N 34°34' E 135°23'0 0.0
2018-Jan-21 15:29N 34°34' E 135°23'0 0.0
2018-Jan-21 14:59N 34°34' E 135°23'0 0.0
2018-Jan-21 14:29N 34°34' E 135°23'0 0.0
2018-Jan-21 13:59N 34°34' E 135°23'0 0.0
2018-Jan-21 13:29N 34°34' E 135°23'0 0.0
2018-Jan-21 12:59N 34°34' E 135°23'0 0.0
2018-Jan-21 12:29N 34°34' E 135°23'0 0.0
2018-Jan-21 11:59N 34°34' E 135°23'0 0.0
2018-Jan-21 11:29N 34°34' E 135°23'0 0.0
2018-Jan-21 10:59N 34°34' E 135°23'0 0.0
2018-Jan-21 10:29N 34°34' E 135°23'0 0.0
2018-Jan-21 09:53N 34°34' E 135°23'0 0.0
2018-Jan-21 09:29N 34°34' E 135°23'0 0.0
2018-Jan-21 08:59N 34°34' E 135°23'0 0.1
2018-Jan-21 08:29N 34°34' E 135°23'0 0.0
2018-Jan-21 07:59N 34°34' E 135°23'0 0.0
2018-Jan-21 07:26N 34°34' E 135°23'0 0.0
2018-Jan-21 06:58N 34°34' E 135°23'0 0.0
2018-Jan-21 06:23N 34°34' E 135°23'0 0.0
2018-Jan-21 05:58N 34°34' E 135°23'0 0.0
2018-Jan-21 05:28N 34°34' E 135°23'0 0.0
2018-Jan-21 04:58N 34°34' E 135°23'0 0.0
2018-Jan-21 04:28N 34°34' E 135°23'0 0.0
2018-Jan-21 03:58N 34°34' E 135°23'0 0.0
2018-Jan-21 03:28N 34°34' E 135°23'0 0.0
2018-Jan-21 02:58N 34°34' E 135°23'0 0.0
2018-Jan-21 02:28N 34°34' E 135°23'0 0.0
2018-Jan-21 01:55N 34°34' E 135°23'0 0.0
2018-Jan-21 01:28N 34°34' E 135°23'0 0.0
2018-Jan-21 00:58N 34°34' E 135°23'0 0.0
2018-Jan-21 00:25N 34°34' E 135°23'0 0.0
2018-Jan-20 23:58N 34°34' E 135°23'0 0.0
2018-Jan-20 23:28N 34°34' E 135°23'0 0.0
2018-Jan-20 22:58N 34°34' E 135°23'0 0.0
2018-Jan-20 22:28N 34°34' E 135°23'1 2.7
2018-Jan-20 22:01N 34°34' E 135°22'611.7
2018-Jan-20 21:30N 34°31' E 135°16'611.9
2018-Jan-20 21:00N 34°26' E 135°10'611.5
2018-Jan-20 20:31N 34°22' E 135°06'611.4
2018-Jan-20 20:00N 34°18' E 135°01'5 9.5
2018-Jan-20 19:31N 34°14' E 134°59'510.7
2018-Jan-20 19:00N 34°09' E 134°57'611.4
2018-Jan-20 18:30N 34°03' E 134°55'611.6
2018-Jan-20 17:59N 33°57' E 134°54'711.3
2018-Jan-20 17:23N 33°51' E 134°52'1111.0
2018-Jan-20 16:22N 33°41' E 134°44'4 0.1
2018-Jan-18 13:32N 33°45' E 134°44'112.2
2018-Jan-18 13:29N 33°46' E 134°45'911.7
2018-Jan-18 12:44N 33°53' E 134°51'311.9
2018-Jan-18 12:30N 33°55' E 134°52'611.7
2018-Jan-18 12:00N 34°01' E 134°54'611.7
2018-Jan-18 11:30N 34°06' E 134°56'611.6
2018-Jan-18 11:01N 34°12' E 134°58'611.5
2018-Jan-18 10:30N 34°18' E 134°59'511.0
2018-Jan-18 10:01N 34°23' E 135°02'611.9
2018-Jan-18 09:30N 34°26' E 135°08'612.1
2018-Jan-18 09:01N 34°29' E 135°14'611.3
2018-Jan-18 08:30N 34°32' E 135°20'5 9.5
2018-Jan-18 08:01N 34°33' E 135°25'0 0.8
2018-Jan-18 07:30N 34°33' E 135°26'0 0.0
2018-Jan-18 07:00N 34°33' E 135°26'0 0.0
2018-Jan-18 06:30N 34°33' E 135°26'0 0.0
2018-Jan-18 06:00N 34°33' E 135°26'0 0.0
2018-Jan-18 05:30N 34°33' E 135°26'0 0.0
2018-Jan-18 05:01N 34°33' E 135°26'0 0.0
2018-Jan-18 04:29N 34°33' E 135°26'0 0.0
2018-Jan-18 04:01N 34°33' E 135°26'0 0.0
2018-Jan-18 03:30N 34°33' E 135°26'0 0.0
2018-Jan-18 03:01N 34°33' E 135°26'0 0.0
2018-Jan-18 02:30N 34°33' E 135°26'0 0.0
2018-Jan-18 02:00N 34°33' E 135°26'0 0.0
2018-Jan-18 01:30N 34°33' E 135°26'0 0.0
2018-Jan-18 01:00N 34°33' E 135°26'1 0.6
2018-Jan-18 00:01N 34°33' E 135°25'0 5.9
2018-Jan-17 23:57N 34°33' E 135°25'  

Dump ship's entire track history